Time;durP1;ratioP1;P1;durP2;ratioP2;P2;SDS_P1;SDS_P2;PMS_P1;PMS_P2;Temp;Humidity;BMP_temperature;BMP_pressure;BME280_temperature;BME280_humidity;BME280_pressure;Samples;Min_cycle;Max_cycle;Signal;HPM_P1;HPM_P2
2023/09/13 00:00:36;;;;;;;5.63;2.60;;;;;;;;;;7299711;19;140535;-78
2023/09/13 00:03:03;;;;;;;6.60;2.47;;;;;;;;;;7299760;19;140793;-80
2023/09/13 00:05:30;;;;;;;4.95;2.30;;;;;;;;;;7297604;19;141849;-79
2023/09/13 00:07:57;;;;;;;4.90;2.28;;;;;;;;;;7299145;19;141578;-77
2023/09/13 00:10:24;;;;;;;5.22;2.47;;;;;;;;;;7298714;19;140676;-78
2023/09/13 00:12:51;;;;;;;5.07;2.28;;;;;;;;;;7297436;19;140648;-78
2023/09/13 00:15:19;;;;;;;8.30;3.03;;;;;;;;;;7298457;19;141293;-78
2023/09/13 00:17:46;;;;;;;3.95;1.80;;;;;;;;;;7298160;19;141812;-78
2023/09/13 00:20:13;;;;;;;3.90;2.10;;;;;;;;;;7305216;19;140687;-77
2023/09/13 00:22:40;;;;;;;3.85;2.08;;;;;;;;;;7305672;19;140525;-78
2023/09/13 00:25:08;;;;;;;4.20;2.00;;;;;;;;;;7304735;19;141752;-78
2023/09/13 00:27:35;;;;;;;4.22;2.13;;;;;;;;;;7303633;19;140681;-78
2023/09/13 00:30:02;;;;;;;4.38;2.28;;;;;;;;;;7305992;19;140719;-79
2023/09/13 00:32:29;;;;;;;4.47;2.00;;;;;;;;;;7304086;19;140639;-78
2023/09/13 00:34:57;;;;;;;2.75;1.88;;;;;;;;;;7304587;19;140990;-79
2023/09/13 00:37:23;;;;;;;;;;;;;;;;;;7306441;19;142000;-78
2023/09/13 00:39:50;;;;;;;4.63;1.88;;;;;;;;;;7302806;19;144469;-77
2023/09/13 00:42:17;;;;;;;3.60;2.08;;;;;;;;;;7305760;19;140780;-79
2023/09/13 00:44:44;;;;;;;3.33;1.67;;;;;;;;;;7305705;19;141784;-76
2023/09/13 00:47:12;;;;;;;4.53;1.95;;;;;;;;;;7304881;19;142687;-77
2023/09/13 00:49:40;;;;;;;3.60;2.00;;;;;;;;;;7305665;19;140501;-76
2023/09/13 00:52:07;;;;;;;2.92;1.98;;;;;;;;;;7305083;19;140636;-76
2023/09/13 00:54:34;;;;;;;3.47;1.67;;;;;;;;;;7305143;19;141450;-76
2023/09/13 00:57:02;;;;;;;2.55;1.70;;;;;;;;;;7305275;19;140704;-76
2023/09/13 00:59:29;;;;;;;4.40;2.08;;;;;;;;;;7305250;19;140364;-77
2023/09/13 01:01:56;;;;;;;2.78;1.70;;;;;;;;;;7303386;19;140580;-77
2023/09/13 01:04:23;;;;;;;4.20;1.95;;;;;;;;;;7304418;19;141415;-78
2023/09/13 01:06:50;;;;;;;3.50;1.70;;;;;;;;;;7304541;19;140794;-78
2023/09/13 01:09:18;;;;;;;2.55;1.70;;;;;;;;;;7307359;19;140529;-77
2023/09/13 01:11:45;;;;;;;;;;;;;;;;;;7305461;19;140532;-77
2023/09/13 01:14:12;;;;;;;3.33;1.60;;;;;;;;;;7304401;19;149930;-77
2023/09/13 01:16:41;;;;;;;3.08;1.85;;;;;;;;;;7302094;19;140927;-77
2023/09/13 01:19:17;;;;;;;2.20;1.35;;;;;;;;;;7304378;19;140557;-77
2023/09/13 01:22:00;;;;;;;3.72;1.60;;;;;;;;;;7303296;19;140838;-77
2023/09/13 01:24:46;;;;;;;2.00;1.52;;;;;;;;;;7304365;19;141948;-76
2023/09/13 01:27:42;;;;;;;2.90;1.70;;;;;;;;;;7304221;19;140575;-76
2023/09/13 01:30:10;;;;;;;3.00;1.45;;;;;;;;;;7299211;19;140755;-76
2023/09/13 01:32:38;;;;;;;2.53;1.52;;;;;;;;;;7304882;19;140899;-79
2023/09/13 01:35:05;;;;;;;2.65;1.60;;;;;;;;;;7303081;19;140513;-80
2023/09/13 01:37:32;;;;;;;2.38;1.30;;;;;;;;;;7303566;19;142530;-79
2023/09/13 01:40:00;;;;;;;2.97;1.55;;;;;;;;;;7304260;19;140416;-80
2023/09/13 01:42:30;;;;;;;1.90;1.25;;;;;;;;;;7305218;19;140610;-80
2023/09/13 01:44:57;;;;;;;2.42;1.67;;;;;;;;;;7302187;19;140517;-79
2023/09/13 01:47:24;;;;;;;;;;;;;;;;;;7304716;19;141793;-79
2023/09/13 01:49:52;;;;;;;3.35;1.67;;;;;;;;;;7302570;19;143699;-78
2023/09/13 01:52:19;;;;;;;2.50;1.50;;;;;;;;;;7303944;19;140643;-80
2023/09/13 01:54:46;;;;;;;2.28;1.40;;;;;;;;;;7303724;19;140814;-77
2023/09/13 01:57:13;;;;;;;3.47;1.55;;;;;;;;;;7302586;19;140741;-80
2023/09/13 01:59:40;;;;;;;2.17;1.40;;;;;;;;;;7303717;19;141130;-79
2023/09/13 02:02:07;;;;;;;3.15;1.67;;;;;;;;;;7303670;19;140546;-78
2023/09/13 02:04:34;;;;;;;2.03;1.40;;;;;;;;;;7302408;19;140961;-78
2023/09/13 02:07:02;;;;;;;2.22;1.55;;;;;;;;;;7302689;19;142061;-78
2023/09/13 02:09:29;;;;;;;2.38;1.60;;;;;;;;;;7303519;19;140430;-78
2023/09/13 02:11:56;;;;;;;;;;;;;;;;;;7303138;19;140502;-78
2023/09/13 02:14:23;;;;;;;2.67;1.45;;;;;;;;;;7302923;19;140752;-80
2023/09/13 02:16:50;;;;;;;1.95;1.20;;;;;;;;;;7303226;19;141965;-78
2023/09/13 02:19:18;;;;;;;2.67;1.40;;;;;;;;;;7302626;19;141499;-77
2023/09/13 02:21:45;;;;;;;2.92;1.40;;;;;;;;;;7302512;19;141273;-78
2023/09/13 02:24:12;;;;;;;2.03;1.50;;;;;;;;;;7301527;19;140795;-77
2023/09/13 02:26:40;;;;;;;2.85;1.30;;;;;;;;;;7301783;19;142814;-77
2023/09/13 02:29:07;;;;;;;1.83;1.30;;;;;;;;;;7302598;19;140625;-77
2023/09/13 02:31:34;;;;;;;2.38;1.50;;;;;;;;;;7302280;19;140451;-76
2023/09/13 02:34:01;;;;;;;2.25;1.20;;;;;;;;;;7301888;19;141271;-77
2023/09/13 02:36:29;;;;;;;1.98;1.30;;;;;;;;;;7301469;19;142102;-77
2023/09/13 02:38:57;;;;;;;2.40;1.40;;;;;;;;;;7302202;19;140583;-75
2023/09/13 02:41:24;;;;;;;2.10;1.40;;;;;;;;;;7300741;19;140653;-76
2023/09/13 02:43:51;;;;;;;2.00;1.40;;;;;;;;;;7299169;19;141831;-78
2023/09/13 02:46:18;;;;;;;2.37;1.50;;;;;;;;;;7299875;19;141835;-77
2023/09/13 02:48:48;;;;;;;2.00;1.43;;;;;;;;;;7300769;19;140879;-78
2023/09/13 02:51:15;;;;;;;1.42;1.23;;;;;;;;;;7301339;19;140425;-78
2023/09/13 02:53:42;;;;;;;2.03;1.20;;;;;;;;;;7301453;19;140975;-78
2023/09/13 02:56:10;;;;;;;2.25;1.23;;;;;;;;;;7300373;19;142511;-78
2023/09/13 02:58:37;;;;;;;2.55;1.35;;;;;;;;;;7302069;19;140662;-79
2023/09/13 03:01:07;;;;;;;1.27;1.10;;;;;;;;;;7301386;19;140561;-79
2023/09/13 03:03:37;;;;;;;2.97;1.33;;;;;;;;;;7301927;19;140583;-79
2023/09/13 03:06:05;;;;;;;1.50;1.17;;;;;;;;;;7300343;19;142233;-76
2023/09/13 03:08:32;;;;;;;1.60;0.95;;;;;;;;;;7300592;19;140653;-76
2023/09/13 03:11:07;;;;;;;2.38;1.20;;;;;;;;;;7301821;19;140736;-76
2023/09/13 03:13:34;;;;;;;2.15;1.30;;;;;;;;;;7299692;19;140669;-76
2023/09/13 03:16:01;;;;;;;1.63;1.30;;;;;;;;;;7298464;19;141427;-76
2023/09/13 03:18:29;;;;;;;1.63;1.20;;;;;;;;;;7299110;19;140666;-77
2023/09/13 03:20:56;;;;;;;1.52;1.20;;;;;;;;;;7298493;19;140694;-76
2023/09/13 03:23:22;;;;;;;2.10;1.42;;;;;;;;;;7297371;19;141130;-77
2023/09/13 03:25:50;;;;;;;1.63;1.20;;;;;;;;;;7299084;19;140801;-77
2023/09/13 03:28:17;;;;;;;2.20;1.42;;;;;;;;;;7297787;19;140940;-76
2023/09/13 03:30:44;;;;;;;1.52;1.10;;;;;;;;;;7301383;19;140357;-76
2023/09/13 03:33:11;;;;;;;2.47;1.20;;;;;;;;;;7300712;19;141285;-76
2023/09/13 03:35:38;;;;;;;4.80;1.63;;;;;;;;;;7299179;19;142070;-76
2023/09/13 03:38:05;;;;;;;1.75;1.10;;;;;;;;;;7299486;19;140683;-77
2023/09/13 03:40:32;;;;;;;1.77;1.10;;;;;;;;;;7300360;19;140378;-76
2023/09/13 03:42:59;;;;;;;1.80;1.20;;;;;;;;;;7299739;19;140500;-77
2023/09/13 03:45:26;;;;;;;2.08;1.15;;;;;;;;;;7300117;19;142513;-76
2023/09/13 03:47:53;;;;;;;2.17;1.35;;;;;;;;;;7300143;19;140774;-77
2023/09/13 03:50:20;;;;;;;2.05;1.20;;;;;;;;;;7300162;19;140491;-78
2023/09/13 03:52:47;;;;;;;2.70;1.15;;;;;;;;;;7299482;19;141677;-77
2023/09/13 03:55:15;;;;;;;1.92;1.00;;;;;;;;;;7305809;19;141871;-77
2023/09/13 03:57:42;;;;;;;;;;;;;;;;;;7307813;19;140500;-77
2023/09/13 04:00:12;;;;;;;1.10;1.00;;;;;;;;;;7306345;19;140861;-78
2023/09/13 04:02:40;;;;;;;1.25;1.00;;;;;;;;;;7307756;19;140563;-78
2023/09/13 04:05:07;;;;;;;1.65;1.08;;;;;;;;;;7306475;19;141822;-78
2023/09/13 04:07:35;;;;;;;1.45;1.08;;;;;;;;;;7305930;19;140602;-77
2023/09/13 04:10:02;;;;;;;2.22;1.15;;;;;;;;;;7304942;19;140942;-76
2023/09/13 04:12:29;;;;;;;1.67;1.13;;;;;;;;;;7305317;19;141450;-78
2023/09/13 04:14:56;;;;;;;1.50;1.10;;;;;;;;;;7302334;19;142352;-78
2023/09/13 04:17:23;;;;;;;2.17;1.25;;;;;;;;;;7304114;19;141642;-78
2023/09/13 04:19:50;;;;;;;1.90;1.20;;;;;;;;;;7305136;19;140543;-76
2023/09/13 04:22:17;;;;;;;1.50;1.10;;;;;;;;;;7302712;19;141611;-75
2023/09/13 04:24:44;;;;;;;1.55;1.20;;;;;;;;;;7304163;19;142012;-77
2023/09/13 04:27:11;;;;;;;2.05;1.05;;;;;;;;;;7304356;19;140662;-77
2023/09/13 04:29:40;;;;;;;1.13;1.00;;;;;;;;;;7305009;19;140713;-76
2023/09/13 04:32:07;;;;;;;1.73;1.05;;;;;;;;;;7303997;19;140591;-77
2023/09/13 04:34:36;;;;;;;1.63;1.00;;;;;;;;;;7303657;19;142770;-79
2023/09/13 04:37:04;;;;;;;1.43;1.10;;;;;;;;;;7303906;19;140454;-79
2023/09/13 04:39:32;;;;;;;1.77;0.90;;;;;;;;;;7305337;19;140732;-79
2023/09/13 04:41:59;;;;;;;1.40;1.00;;;;;;;;;;7306163;19;141955;-79
2023/09/13 04:44:26;;;;;;;0.98;0.80;;;;;;;;;;7305416;19;141809;-79
2023/09/13 04:46:53;;;;;;;1.38;1.00;;;;;;;;;;7305180;19;140987;-78
2023/09/13 04:49:20;;;;;;;1.48;1.08;;;;;;;;;;7305330;19;140602;-79
2023/09/13 04:51:47;;;;;;;2.55;1.10;;;;;;;;;;7304873;19;141003;-81
2023/09/13 04:54:15;;;;;;;1.58;0.90;;;;;;;;;;7304372;19;142819;-79
2023/09/13 04:59:42;;;;;;;3.55;1.17;;;;;;;;;;7307256;19;140464;-78
2023/09/13 05:02:10;;;;;;;3.33;1.10;;;;;;;;;;7304732;19;141197;-78
2023/09/13 05:04:38;;;;;;;2.25;1.00;;;;;;;;;;7302768;19;140679;-76
2023/09/13 05:07:06;;;;;;;3.85;1.50;;;;;;;;;;7302600;19;141693;-76
2023/09/13 05:09:35;;;;;;;1.20;0.98;;;;;;;;;;7304779;19;140513;-76
2023/09/13 05:12:02;;;;;;;1.55;0.98;;;;;;;;;;7304561;19;140658;-76
2023/09/13 05:14:29;;;;;;;2.13;1.10;;;;;;;;;;7302476;19;142909;-76
2023/09/13 05:16:59;;;;;;;1.47;0.80;;;;;;;;;;7304712;19;140435;-76
2023/09/13 05:19:26;;;;;;;3.03;0.90;;;;;;;;;;7304566;19;140723;-75
2023/09/13 05:21:53;;;;;;;2.30;1.17;;;;;;;;;;7303442;19;140747;-77
2023/09/13 05:24:21;;;;;;;1.85;0.95;;;;;;;;;;7304166;19;142827;-77
2023/09/13 05:26:48;;;;;;;1.60;0.95;;;;;;;;;;7304251;19;140825;-77
2023/09/13 05:29:15;;;;;;;1.77;0.90;;;;;;;;;;7303841;19;140794;-77
2023/09/13 05:31:42;;;;;;;2.72;1.02;;;;;;;;;;7303634;19;141612;-76
2023/09/13 05:34:09;;;;;;;1.50;0.90;;;;;;;;;;7303493;19;142094;-77
2023/09/13 05:36:36;;;;;;;2.08;1.10;;;;;;;;;;7302696;19;140698;-77
2023/09/13 05:39:03;;;;;;;2.08;1.05;;;;;;;;;;7304226;19;140497;-78
2023/09/13 05:41:34;;;;;;;3.30;1.20;;;;;;;;;;7303470;19;140733;-77
2023/09/13 05:44:01;;;;;;;3.08;1.10;;;;;;;;;;7303844;19;140834;-79
2023/09/13 05:46:28;;;;;;;1.92;0.90;;;;;;;;;;7303815;19;140435;-78
2023/09/13 05:48:55;;;;;;;2.28;1.15;;;;;;;;;;7303613;19;140549;-76
2023/09/13 05:51:22;;;;;;;2.40;1.20;;;;;;;;;;7302726;19;141021;-76
2023/09/13 05:53:49;;;;;;;3.80;1.20;;;;;;;;;;7303432;19;142759;-77
2023/09/13 05:56:16;;;;;;;2.15;0.90;;;;;;;;;;7303433;19;140645;-76
2023/09/13 05:58:43;;;;;;;1.92;0.90;;;;;;;;;;7303462;19;140665;-76
2023/09/13 06:01:13;;;;;;;2.30;1.10;;;;;;;;;;7303147;19;140744;-76
2023/09/13 06:03:40;;;;;;;2.38;1.17;;;;;;;;;;7303384;19;141872;-78
2023/09/13 06:06:08;;;;;;;3.15;1.20;;;;;;;;;;7303663;19;140730;-79
2023/09/13 06:08:35;;;;;;;2.53;1.02;;;;;;;;;;7302259;19;140859;-79
2023/09/13 06:11:02;;;;;;;2.25;1.05;;;;;;;;;;7302867;19;142480;-78
2023/09/13 06:13:29;;;;;;;1.42;0.98;;;;;;;;;;7302461;19;142100;-78
2023/09/13 06:15:57;;;;;;;0.90;0.80;;;;;;;;;;7300755;19;140461;-76
2023/09/13 06:18:24;;;;;;;1.38;0.90;;;;;;;;;;7302543;19;140448;-75
2023/09/13 06:20:51;;;;;;;4.03;1.08;;;;;;;;;;7302350;19;141336;-77
2023/09/13 06:23:34;;;;;;;1.83;1.00;;;;;;;;;;7301733;19;141341;-78
2023/09/13 06:26:02;;;;;;;1.77;0.88;;;;;;;;;;7302313;19;141503;-76
2023/09/13 06:28:29;;;;;;;1.23;0.82;;;;;;;;;;7302131;19;140693;-79
2023/09/13 06:31:00;;;;;;;2.00;0.90;;;;;;;;;;7300898;19;140492;-78
2023/09/13 06:33:30;;;;;;;3.13;1.33;;;;;;;;;;7300936;19;142478;-77
2023/09/13 06:36:00;;;;;;;3.33;1.35;;;;;;;;;;7301014;19;140623;-76
2023/09/13 06:38:28;;;;;;;2.17;1.00;;;;;;;;;;7299814;19;140710;-78
2023/09/13 06:40:57;;;;;;;1.98;0.90;;;;;;;;;;7301863;19;141317;-79
2023/09/13 06:43:25;;;;;;;2.03;0.95;;;;;;;;;;7302172;19;141419;-78
2023/09/13 06:45:55;;;;;;;;;;;;;;;;;;7302260;19;140426;-77
2023/09/13 06:48:31;;;;;;;1.75;0.80;;;;;;;;;;7301802;19;141593;-77
2023/09/13 06:50:59;;;;;;;1.92;1.02;;;;;;;;;;7301065;19;141013;-76
2023/09/13 06:53:47;;;;;;;2.03;0.90;;;;;;;;;;7300726;19;140929;-78
2023/09/13 06:56:17;;;;;;;3.00;0.90;;;;;;;;;;7300138;19;140727;-76
2023/09/13 06:58:48;;;;;;;;;;;;;;;;;;7302573;19;140596;-76
2023/09/13 07:01:17;;;;;;;1.70;0.80;;;;;;;;;;7304032;19;140532;-76
2023/09/13 07:04:04;;;;;;;1.52;1.00;;;;;;;;;;7299241;19;143741;-76
2023/09/13 07:06:37;;;;;;;3.80;1.20;;;;;;;;;;7300585;19;140481;-76
2023/09/13 07:09:04;;;;;;;2.15;0.85;;;;;;;;;;7300682;19;140971;-76
2023/09/13 07:11:32;;;;;;;1.27;0.93;;;;;;;;;;7300362;19;141271;-76
2023/09/13 07:13:59;;;;;;;2.83;1.20;;;;;;;;;;7299238;19;140896;-77
2023/09/13 07:16:26;;;;;;;1.70;0.82;;;;;;;;;;7299351;19;140648;-78
2023/09/13 07:18:55;;;;;;;2.05;0.98;;;;;;;;;;7300977;19;140459;-77
2023/09/13 07:21:22;;;;;;;3.33;1.20;;;;;;;;;;7300154;19;141905;-77
2023/09/13 07:23:51;;;;;;;3.67;1.50;;;;;;;;;;7298296;19;142060;-77
2023/09/13 07:26:18;;;;;;;3.25;1.00;;;;;;;;;;7299895;19;140765;-78
2023/09/13 07:28:45;;;;;;;1.73;0.90;;;;;;;;;;7303050;19;140655;-78
2023/09/13 07:31:12;;;;;;;1.33;0.90;;;;;;;;;;7307811;19;141861;-78
2023/09/13 07:33:40;;;;;;;2.97;1.23;;;;;;;;;;7307528;19;140897;-79
2023/09/13 07:36:07;;;;;;;1.58;0.95;;;;;;;;;;7308011;19;140718;-78
2023/09/13 07:38:34;;;;;;;2.42;1.10;;;;;;;;;;7306670;19;140726;-79
2023/09/13 07:41:02;;;;;;;1.88;0.90;;;;;;;;;;7305372;19;142072;-76
2023/09/13 07:43:29;;;;;;;1.40;0.90;;;;;;;;;;7306824;19;142269;-76
2023/09/13 07:45:56;;;;;;;2.97;1.20;;;;;;;;;;7307303;19;140782;-76
2023/09/13 07:48:26;;;;;;;1.90;0.90;;;;;;;;;;7307479;19;140534;-76
2023/09/13 07:50:53;;;;;;;1.03;0.70;;;;;;;;;;7307494;19;140429;-77
2023/09/13 07:53:20;;;;;;;3.13;0.90;;;;;;;;;;7304873;19;142350;-77
2023/09/13 07:55:47;;;;;;;2.25;0.88;;;;;;;;;;7306810;19;140591;-76
2023/09/13 07:58:14;;;;;;;1.60;0.90;;;;;;;;;;7307004;19;140791;-77
2023/09/13 08:00:43;;;;;;;1.77;0.90;;;;;;;;;;7306817;19;142048;-76
2023/09/13 08:03:10;;;;;;;2.25;1.02;;;;;;;;;;7306380;19;140985;-76
2023/09/13 08:05:38;;;;;;;0.75;0.63;;;;;;;;;;7306576;19;140502;-76
2023/09/13 08:08:05;;;;;;;1.42;0.80;;;;;;;;;;7305742;19;140708;-77
2023/09/13 08:10:33;;;;;;;1.90;0.77;;;;;;;;;;7306005;19;142312;-76
2023/09/13 08:13:00;;;;;;;1.02;0.70;;;;;;;;;;7305656;19;142033;-76
2023/09/13 08:15:27;;;;;;;2.55;1.08;;;;;;;;;;7306378;19;140465;-76
2023/09/13 08:18:14;;;;;;;1.88;0.98;;;;;;;;;;7306260;19;140850;-77
2023/09/13 08:20:41;;;;;;;2.58;0.90;;;;;;;;;;7304946;19;140477;-75
2023/09/13 08:23:08;;;;;;;3.88;1.27;;;;;;;;;;7303445;19;140777;-71
2023/09/13 08:25:36;;;;;;;1.33;0.82;;;;;;;;;;7304147;19;140876;-74
2023/09/13 08:28:06;;;;;;;1.38;0.80;;;;;;;;;;7303026;19;141076;-73
2023/09/13 08:30:33;;;;;;;;;;;;;;;;;;7304292;19;140909;-72
2023/09/13 08:33:00;;;;;;;2.88;1.15;;;;;;;;;;7303581;19;150636;-72
2023/09/13 08:35:27;;;;;;;6.20;1.60;;;;;;;;;;7299369;19;140584;-70
2023/09/13 08:37:55;;;;;;;2.30;0.80;;;;;;;;;;7298739;19;141691;-73
2023/09/13 08:40:24;;;;;;;2.13;0.90;;;;;;;;;;7304088;19;142046;-74
2023/09/13 08:42:53;;;;;;;1.40;0.82;;;;;;;;;;7304204;19;142220;-73
2023/09/13 08:45:21;;;;;;;3.07;1.10;;;;;;;;;;7303883;19;140694;-70
2023/09/13 08:47:49;;;;;;;1.45;0.95;;;;;;;;;;7305306;19;141688;-74
2023/09/13 08:50:27;;;;;;;2.47;1.00;;;;;;;;;;7305113;19;141186;-73
2023/09/13 08:52:55;;;;;;;1.40;0.83;;;;;;;;;;7303478;19;142182;-71
2023/09/13 08:55:22;;;;;;;0.70;0.70;;;;;;;;;;7305731;19;140452;-72
2023/09/13 08:57:50;;;;;;;1.70;1.00;;;;;;;;;;7301830;19;141009;-79
2023/09/13 09:00:18;;;;;;;1.88;0.93;;;;;;;;;;7302669;19;142078;-76
2023/09/13 09:02:47;;;;;;;1.15;0.82;;;;;;;;;;7303597;19;142668;-76
2023/09/13 09:05:16;;;;;;;2.15;0.93;;;;;;;;;;7304150;19;140547;-76
2023/09/13 09:07:44;;;;;;;2.03;1.00;;;;;;;;;;7302593;19;140614;-76
2023/09/13 09:10:12;;;;;;;2.38;1.00;;;;;;;;;;7300995;19;141829;-76
2023/09/13 09:12:46;;;;;;;0.70;0.70;;;;;;;;;;7299401;19;142515;-76
2023/09/13 09:15:14;;;;;;;2.08;0.90;;;;;;;;;;7303346;19;140439;-76
2023/09/13 09:17:41;;;;;;;2.20;0.80;;;;;;;;;;7303565;19;140568;-76
2023/09/13 09:20:09;;;;;;;3.47;1.10;;;;;;;;;;7302445;19;141087;-77
2023/09/13 09:22:51;;;;;;;7.45;1.98;;;;;;;;;;7302578;19;141839;-76
2023/09/13 09:25:19;;;;;;;1.02;0.70;;;;;;;;;;7304250;19;140701;-77
2023/09/13 09:27:46;;;;;;;1.73;0.77;;;;;;;;;;7301964;19;140702;-78
2023/09/13 09:30:14;;;;;;;1.27;0.88;;;;;;;;;;7302827;19;140853;-77
2023/09/13 09:32:43;;;;;;;1.00;0.77;;;;;;;;;;7301926;19;141998;-76
2023/09/13 09:35:14;;;;;;;1.17;0.80;;;;;;;;;;7303703;19;140412;-77
2023/09/13 09:37:42;;;;;;;1.98;1.10;;;;;;;;;;7303459;19;140654;-77
2023/09/13 09:40:11;;;;;;;1.98;1.00;;;;;;;;;;7301333;19;141344;-79
2023/09/13 09:42:38;;;;;;;0.90;0.80;;;;;;;;;;7301831;19;141937;-77
2023/09/13 09:45:05;;;;;;;2.30;1.17;;;;;;;;;;7304270;19;140875;-78
2023/09/13 09:47:36;;;;;;;1.67;1.13;;;;;;;;;;7302787;19;140536;-75
2023/09/13 09:50:04;;;;;;;1.15;1.00;;;;;;;;;;7303011;19;140967;-76
2023/09/13 09:52:31;;;;;;;2.05;1.20;;;;;;;;;;7301423;19;140811;-75
2023/09/13 09:54:58;;;;;;;3.08;1.58;;;;;;;;;;7302867;19;140461;-75
2023/09/13 09:57:26;;;;;;;1.58;1.20;;;;;;;;;;7302860;19;140506;-76
2023/09/13 09:59:53;;;;;;;1.17;1.00;;;;;;;;;;7302791;19;141319;-76
2023/09/13 10:02:27;;;;;;;1.38;1.15;;;;;;;;;;7302498;19;143082;-77
2023/09/13 10:04:54;;;;;;;2.78;1.60;;;;;;;;;;7303515;19;140417;-76
2023/09/13 10:07:21;;;;;;;2.55;1.30;;;;;;;;;;7302835;19;140597;-79
2023/09/13 10:09:48;;;;;;;2.95;1.30;;;;;;;;;;7301684;19;140575;-76
2023/09/13 10:12:16;;;;;;;1.85;1.10;;;;;;;;;;7302500;19;142482;-76
2023/09/13 10:14:44;;;;;;;2.22;1.33;;;;;;;;;;7302880;19;140461;-76
2023/09/13 10:17:12;;;;;;;2.83;1.60;;;;;;;;;;7302392;19;141625;-76
2023/09/13 10:19:41;;;;;;;1.73;1.25;;;;;;;;;;7301066;19;142053;-77
2023/09/13 10:22:10;;;;;;;3.22;1.58;;;;;;;;;;7300391;19;141032;-77
2023/09/13 10:24:46;;;;;;;1.95;1.33;;;;;;;;;;7299947;19;140873;-76
2023/09/13 10:27:15;;;;;;;1.90;1.50;;;;;;;;;;7300744;19;140890;-76
2023/09/13 10:29:46;;;;;;;3.45;1.75;;;;;;;;;;7300180;19;142361;-77
2023/09/13 10:32:16;;;;;;;1.83;1.33;;;;;;;;;;7303949;19;140913;-78
2023/09/13 10:35:11;;;;;;;1.83;1.40;;;;;;;;;;7301744;19;140902;-78
2023/09/13 10:37:52;;;;;;;2.08;1.50;;;;;;;;;;7300766;19;140762;-77
2023/09/13 10:40:23;;;;;;;1.30;1.20;;;;;;;;;;7301306;19;140656;-79
2023/09/13 10:42:55;;;;;;;2.33;1.58;;;;;;;;;;7301161;19;140866;-79
2023/09/13 10:45:24;;;;;;;2.33;1.33;;;;;;;;;;7300622;19;140787;-79
2023/09/13 10:47:52;;;;;;;1.35;1.25;;;;;;;;;;7301900;19;142175;-78
2023/09/13 10:50:25;;;;;;;2.75;1.70;;;;;;;;;;7300684;19;140472;-79
2023/09/13 10:52:52;;;;;;;2.35;1.55;;;;;;;;;;7300388;19;141526;-79
2023/09/13 10:55:29;;;;;;;1.88;1.30;;;;;;;;;;7299908;19;140723;-77
2023/09/13 10:57:57;;;;;;;1.80;1.40;;;;;;;;;;7300226;19;140711;-76
2023/09/13 11:00:26;;;;;;;2.25;1.52;;;;;;;;;;7301129;19;140992;-75
2023/09/13 11:02:53;;;;;;;1.40;1.30;;;;;;;;;;7298275;19;141520;-76
2023/09/13 11:05:20;;;;;;;1.67;1.30;;;;;;;;;;7300443;19;140507;-76
2023/09/13 11:07:49;;;;;;;2.20;1.33;;;;;;;;;;7300714;19;140513;-77
2023/09/13 11:10:22;;;;;;;1.40;1.20;;;;;;;;;;7298918;19;141205;-77
2023/09/13 11:12:50;;;;;;;1.83;1.30;;;;;;;;;;7300666;19;143589;-76
2023/09/13 11:15:25;;;;;;;1.60;1.30;;;;;;;;;;7297663;19;142381;-80
2023/09/13 11:17:53;;;;;;;1.42;1.15;;;;;;;;;;7299817;19;141140;-80
2023/09/13 11:20:29;;;;;;;2.60;1.70;;;;;;;;;;7298341;19;141135;-77
2023/09/13 11:23:01;;;;;;;1.55;1.25;;;;;;;;;;7298084;19;140812;-77
2023/09/13 11:25:55;;;;;;;2.13;1.42;;;;;;;;;;7293282;19;141888;-78
2023/09/13 11:28:29;;;;;;;;;;;;;;;;;;7300566;19;140451;-77
2023/09/13 11:30:58;;;;;;;;;;;;;;;;;;7300613;19;140724;-78
2023/09/13 11:33:26;;;;;;;2.28;1.42;;;;;;;;;;7298360;19;140981;-78
2023/09/13 11:35:54;;;;;;;1.73;1.40;;;;;;;;;;7296807;19;140756;-78
2023/09/13 11:38:21;;;;;;;3.38;1.55;;;;;;;;;;7297625;19;140603;-78
2023/09/13 11:40:49;;;;;;;1.50;1.17;;;;;;;;;;7298523;19;141695;-76
2023/09/13 11:43:21;;;;;;;1.45;1.20;;;;;;;;;;7298111;19;140812;-78
2023/09/13 11:46:00;;;;;;;2.47;1.40;;;;;;;;;;7299372;19;141107;-78
2023/09/13 11:48:40;;;;;;;1.70;1.50;;;;;;;;;;7299243;19;140879;-80
2023/09/13 11:51:30;;;;;;;1.60;1.35;;;;;;;;;;7298844;19;141226;-80
2023/09/13 11:54:18;;;;;;;1.95;1.30;;;;;;;;;;7296711;19;141389;-77
2023/09/13 11:56:48;;;;;;;1.95;1.35;;;;;;;;;;7299741;19;140536;-77
2023/09/13 11:59:16;;;;;;;1.88;1.33;;;;;;;;;;7299496;19;140585;-78
2023/09/13 12:01:48;;;;;;;1.40;1.30;;;;;;;;;;7299036;19;140993;-78
2023/09/13 12:04:21;;;;;;;;;;;;;;;;;;7299780;19;141060;-78
2023/09/13 12:07:09;;;;;;;2.25;1.20;;;;;;;;;;7298478;19;140735;-78
2023/09/13 12:09:38;;;;;;;2.10;1.42;;;;;;;;;;7297395;19;141170;-82
2023/09/13 12:12:07;;;;;;;1.85;1.15;;;;;;;;;;7299215;19;141307;-81
2023/09/13 12:14:42;;;;;;;1.88;1.20;;;;;;;;;;7294920;19;143065;-84
2023/09/13 12:17:31;;;;;;;1.92;1.25;;;;;;;;;;7305087;19;142627;-82
2023/09/13 12:20:23;;;;;;;1.73;1.20;;;;;;;;;;7303373;19;140813;-82
2023/09/13 12:23:01;;;;;;;2.08;1.10;;;;;;;;;;7302083;19;141066;-81
2023/09/13 12:25:32;;;;;;;1.33;1.00;;;;;;;;;;7304248;19;142826;-82
2023/09/13 12:28:00;;;;;;;1.85;1.13;;;;;;;;;;7303167;19;140757;-81
2023/09/13 12:30:29;;;;;;;1.10;0.90;;;;;;;;;;7303274;19;141210;-81
2023/09/13 12:32:57;;;;;;;1.15;1.05;;;;;;;;;;7302039;19;142247;-84
2023/09/13 12:35:25;;;;;;;2.10;1.30;;;;;;;;;;7303511;19;142030;-82
2023/09/13 12:37:57;;;;;;;1.30;1.10;;;;;;;;;;7305187;19;141114;-77
2023/09/13 12:40:28;;;;;;;1.00;0.90;;;;;;;;;;7303658;19;140833;-81
2023/09/13 12:42:56;;;;;;;1.55;1.10;;;;;;;;;;7303085;19;140740;-79
2023/09/13 12:45:23;;;;;;;1.48;1.10;;;;;;;;;;7304022;19;141718;-79
2023/09/13 12:47:50;;;;;;;1.30;1.10;;;;;;;;;;7305547;19;140544;-79
2023/09/13 12:50:19;;;;;;;1.17;1.08;;;;;;;;;;7305017;19;140448;-79
2023/09/13 12:53:00;;;;;;;1.38;1.13;;;;;;;;;;7302200;19;140604;-76
2023/09/13 12:55:27;;;;;;;;;;;;;;;;;;7303984;19;140677;-74
2023/09/13 12:58:00;;;;;;;1.05;0.95;;;;;;;;;;7303385;19;144675;-74
2023/09/13 13:00:27;;;;;;;1.10;0.90;;;;;;;;;;7304673;19;140412;-75
2023/09/13 13:02:54;;;;;;;1.00;0.90;;;;;;;;;;7304388;19;141211;-74
2023/09/13 13:05:21;;;;;;;1.00;0.90;;;;;;;;;;7304162;19;142396;-76
2023/09/13 13:07:48;;;;;;;1.33;1.10;;;;;;;;;;7305259;19;140522;-75
2023/09/13 13:10:28;;;;;;;2.50;1.20;;;;;;;;;;7302470;19;140655;-75
2023/09/13 13:12:55;;;;;;;1.63;1.00;;;;;;;;;;7304667;19;140568;-75
2023/09/13 13:15:29;;;;;;;1.10;1.00;;;;;;;;;;7303822;19;141880;-74
2023/09/13 13:17:56;;;;;;;1.77;1.00;;;;;;;;;;7303619;19;140896;-74
2023/09/13 13:20:23;;;;;;;1.23;1.13;;;;;;;;;;7304745;19;140804;-74
2023/09/13 13:22:53;;;;;;;1.48;1.08;;;;;;;;;;7306633;19;140700;-75
2023/09/13 13:25:21;;;;;;;2.13;1.20;;;;;;;;;;7302185;19;142555;-75
2023/09/13 13:27:49;;;;;;;1.65;1.20;;;;;;;;;;7302856;19;140751;-74
2023/09/13 13:30:16;;;;;;;;;;;;;;;;;;7304429;19;140562;-75
2023/09/13 13:32:43;;;;;;;;;;;;;;;;;;7304340;19;140433;-75
2023/09/13 13:35:10;;;;;;;1.47;1.07;;;;;;;;;;7303121;19;152332;-75
2023/09/13 13:37:43;;;;;;;0.95;0.90;;;;;;;;;;7306179;19;140467;-75
2023/09/13 13:40:10;;;;;;;2.08;1.20;;;;;;;;;;7303404;19;140577;-75
2023/09/13 13:42:37;;;;;;;1.45;0.98;;;;;;;;;;7303346;19;141139;-74
2023/09/13 13:45:05;;;;;;;1.20;1.10;;;;;;;;;;7302787;19;141838;-74
2023/09/13 13:47:32;;;;;;;1.20;1.10;;;;;;;;;;7303462;19;140354;-74
2023/09/13 13:50:00;;;;;;;1.60;1.00;;;;;;;;;;7302021;19;140817;-74
2023/09/13 13:52:28;;;;;;;1.90;1.10;;;;;;;;;;7302934;19;141802;-74
2023/09/13 13:54:55;;;;;;;1.55;1.10;;;;;;;;;;7300802;19;142832;-74
2023/09/13 13:57:22;;;;;;;1.55;1.00;;;;;;;;;;7303340;19;140616;-75
2023/09/13 13:59:49;;;;;;;1.20;1.00;;;;;;;;;;7302665;19;140563;-74
2023/09/13 14:02:16;;;;;;;0.82;0.80;;;;;;;;;;7302413;19;141088;-76
2023/09/13 14:04:43;;;;;;;1.42;0.93;;;;;;;;;;7302578;19;142697;-75
2023/09/13 14:07:11;;;;;;;0.80;0.80;;;;;;;;;;7303092;19;140529;-75
2023/09/13 14:09:38;;;;;;;1.17;0.90;;;;;;;;;;7302266;19;140480;-75
2023/09/13 14:12:05;;;;;;;1.95;1.05;;;;;;;;;;7303088;19;140574;-74
2023/09/13 14:14:32;;;;;;;1.60;0.90;;;;;;;;;;7302233;19;141788;-75
2023/09/13 14:17:00;;;;;;;0.88;0.88;;;;;;;;;;7302620;19;140320;-75
2023/09/13 14:19:26;;;;;;;1.38;0.90;;;;;;;;;;7302814;19;140653;-75
2023/09/13 14:21:54;;;;;;;1.10;0.80;;;;;;;;;;7302158;19;141603;-75
2023/09/13 14:24:21;;;;;;;1.30;1.00;;;;;;;;;;7301243;19;141064;-75
2023/09/13 14:26:48;;;;;;;1.50;0.90;;;;;;;;;;7302290;19;140537;-75
2023/09/13 14:29:15;;;;;;;1.63;1.15;;;;;;;;;;7301876;19;140620;-78
2023/09/13 14:31:45;;;;;;;1.58;0.95;;;;;;;;;;7302114;19;140989;-75
2023/09/13 14:34:12;;;;;;;1.47;1.10;;;;;;;;;;7302164;19;140956;-76
2023/09/13 14:36:39;;;;;;;1.17;0.95;;;;;;;;;;7300721;19;140485;-74
2023/09/13 14:39:06;;;;;;;1.50;1.00;;;;;;;;;;7301221;19;140806;-76
2023/09/13 14:41:33;;;;;;;0.85;0.75;;;;;;;;;;7300879;19;140881;-76
2023/09/13 14:44:01;;;;;;;1.08;0.90;;;;;;;;;;7300411;19;142030;-76
2023/09/13 14:46:30;;;;;;;0.98;0.88;;;;;;;;;;7301626;19;140760;-76